createdAt,value
2023-02-14T00:02:05.583Z,17.35
2023-02-14T00:04:42.552Z,18.88
2023-02-14T00:07:16.606Z,17.00
2023-02-14T00:09:48.853Z,16.23
2023-02-14T00:12:20.974Z,18.13
2023-02-14T00:15:11.614Z,17.30
2023-02-14T00:18:03.057Z,16.35
2023-02-14T00:20:37.253Z,16.67
2023-02-14T00:23:09.278Z,16.02
2023-02-14T00:25:41.334Z,17.00
2023-02-14T00:28:13.320Z,16.85
2023-02-14T00:30:46.489Z,17.05
2023-02-14T00:33:19.614Z,16.30
2023-02-14T00:35:51.528Z,17.60
2023-02-14T00:38:23.549Z,18.80
2023-02-14T00:40:55.507Z,18.55
2023-02-14T00:43:27.555Z,17.35
2023-02-14T00:45:59.772Z,18.33
2023-02-14T00:52:42.770Z,15.00
2023-02-14T00:55:14.899Z,18.50
2023-02-14T00:57:47.055Z,16.85
2023-02-14T01:00:19.539Z,17.45
2023-02-14T01:02:52.087Z,16.75
2023-02-14T01:05:24.146Z,16.08
2023-02-14T01:07:56.176Z,18.20
2023-02-14T01:10:28.218Z,18.23
2023-02-14T01:13:00.291Z,17.75
2023-02-14T01:15:33.431Z,17.30
2023-02-14T01:18:10.419Z,16.90
2023-02-14T01:20:42.736Z,19.20
2023-02-14T01:23:15.546Z,18.67
2023-02-14T01:25:48.072Z,18.08
2023-02-14T01:28:19.998Z,18.80
2023-02-14T01:30:52.162Z,16.25
2023-02-14T01:33:24.418Z,17.85
2023-02-14T01:35:56.380Z,18.23
2023-02-14T01:38:29.090Z,19.10
2023-02-14T01:41:01.534Z,19.42
2023-02-14T01:43:58.729Z,19.65
2023-02-14T01:46:37.623Z,18.67
2023-02-14T01:49:18.552Z,19.10
2023-02-14T01:52:23.616Z,19.27
2023-02-14T01:55:25.256Z,16.58
2023-02-14T01:58:09.608Z,18.08
2023-02-14T02:00:59.444Z,18.27
2023-02-14T02:03:35.208Z,18.70
2023-02-14T02:06:17.441Z,18.42
2023-02-14T02:09:05.833Z,18.55
2023-02-14T02:11:57.689Z,18.15
2023-02-14T02:14:30.211Z,16.27
2023-02-14T02:17:56.720Z,18.02
2023-02-14T02:20:55.344Z,17.75
2023-02-14T02:23:53.022Z,18.02
2023-02-14T02:26:37.434Z,16.85
2023-02-14T02:29:43.638Z,16.80
2023-02-14T02:33:01.634Z,18.80
2023-02-14T02:36:12.044Z,18.95
2023-02-14T02:39:31.554Z,16.63
2023-02-14T02:42:49.034Z,20.45
2023-02-14T02:46:30.349Z,16.55
2023-02-14T02:50:17.306Z,16.05
2023-02-14T02:53:20.971Z,17.13
2023-02-14T02:56:47.617Z,18.77
2023-02-14T02:59:38.565Z,15.73
2023-02-14T03:02:21.059Z,19.08
2023-02-14T03:05:03.046Z,18.60
2023-02-14T03:07:41.780Z,19.15
2023-02-14T03:10:30.001Z,17.20
2023-02-14T03:13:09.141Z,17.60
2023-02-14T03:16:22.093Z,18.58
2023-02-14T03:20:10.742Z,17.23
2023-02-14T03:23:13.606Z,17.58
2023-02-14T03:26:14.280Z,17.90
2023-02-14T03:29:08.654Z,17.10
2023-02-14T03:32:00.610Z,18.13
2023-02-14T03:35:20.432Z,19.08
2023-02-14T03:38:14.230Z,18.80
2023-02-14T03:41:07.119Z,19.40
2023-02-14T03:43:48.511Z,16.90
2023-02-14T03:46:28.570Z,18.05
2023-02-14T03:49:10.265Z,19.65
2023-02-14T03:51:50.706Z,19.00
2023-02-14T03:54:27.489Z,17.80
2023-02-14T03:57:19.564Z,19.25
2023-02-14T03:59:59.857Z,19.25
2023-02-14T04:02:37.114Z,21.30
2023-02-14T04:05:19.310Z,19.48
2023-02-14T04:07:57.572Z,15.85
2023-02-14T04:10:29.803Z,19.88
2023-02-14T04:13:11.357Z,20.98
2023-02-14T04:15:43.584Z,17.45
2023-02-14T04:18:34.200Z,17.45
2023-02-14T04:21:27.207Z,17.50
2023-02-14T04:23:59.089Z,17.98
2023-02-14T04:26:31.104Z,18.15
2023-02-14T04:29:03.719Z,19.13
2023-02-14T04:31:36.147Z,17.83
2023-02-14T04:34:08.261Z,17.05
2023-02-14T04:36:40.543Z,20.90
2023-02-14T04:39:12.553Z,20.48
2023-02-14T04:41:44.486Z,19.17
2023-02-14T04:44:16.497Z,18.88
2023-02-14T04:46:48.582Z,18.58
2023-02-14T04:49:20.812Z,17.65
2023-02-14T04:51:52.904Z,17.20
2023-02-14T04:54:25.100Z,18.45
2023-02-14T04:56:57.329Z,19.00
2023-02-14T04:59:30.644Z,16.60
2023-02-14T05:02:02.634Z,16.88
2023-02-14T05:04:34.813Z,18.48
2023-02-14T05:07:07.640Z,18.48
2023-02-14T05:09:39.666Z,19.80
2023-02-14T05:12:11.737Z,17.58
2023-02-14T05:14:43.930Z,17.25
2023-02-14T05:17:16.393Z,19.15
2023-02-14T05:19:48.411Z,19.73
2023-02-14T05:22:20.562Z,18.60
2023-02-14T05:24:52.606Z,18.17
2023-02-14T05:27:24.628Z,15.82
2023-02-14T05:29:56.720Z,18.95
2023-02-14T05:32:28.761Z,20.25
2023-02-14T05:35:01.860Z,18.20
2023-02-14T05:37:34.687Z,17.80
2023-02-14T05:40:08.265Z,17.42
2023-02-14T05:42:41.169Z,16.35
2023-02-14T05:45:14.062Z,18.65
2023-02-14T05:47:48.627Z,20.45
2023-02-14T05:50:21.025Z,17.55
2023-02-14T05:52:52.999Z,19.27
2023-02-14T05:55:26.292Z,16.95
2023-02-14T05:57:58.555Z,17.77
2023-02-14T06:00:30.760Z,16.35
2023-02-14T06:03:03.090Z,17.48
2023-02-14T06:05:38.332Z,19.35
2023-02-14T06:08:10.742Z,17.80
2023-02-14T06:10:42.967Z,17.65
2023-02-14T06:13:15.153Z,17.38
2023-02-14T06:15:47.277Z,17.50
2023-02-14T06:18:19.339Z,20.25
2023-02-14T06:20:53.705Z,19.25
2023-02-14T06:23:26.337Z,18.35
2023-02-14T06:25:58.311Z,19.25
2023-02-14T06:28:30.273Z,20.88
2023-02-14T06:31:02.950Z,20.50
2023-02-14T06:33:35.386Z,20.02
2023-02-14T06:36:07.758Z,18.27
2023-02-14T06:38:41.325Z,18.30
2023-02-14T06:41:14.982Z,18.75
2023-02-14T06:43:50.786Z,18.08
2023-02-14T06:46:23.043Z,19.08
2023-02-14T06:48:55.086Z,19.25
2023-02-14T06:51:27.116Z,18.75
2023-02-14T06:53:59.065Z,17.80
2023-02-14T06:56:31.275Z,18.98
2023-02-14T06:59:03.445Z,16.52
2023-02-14T07:01:35.701Z,18.35
2023-02-14T07:04:07.749Z,16.65
2023-02-14T07:06:39.792Z,17.88
2023-02-14T07:09:12.345Z,19.05
2023-02-14T07:11:49.120Z,17.83
2023-02-14T07:14:21.242Z,20.35
2023-02-14T07:16:53.311Z,20.88
2023-02-14T07:19:25.391Z,20.95
2023-02-14T07:21:57.577Z,20.88
2023-02-14T07:24:45.047Z,23.27
2023-02-14T07:27:17.111Z,19.25
2023-02-14T07:29:49.206Z,20.15
2023-02-14T07:32:23.703Z,20.70
2023-02-14T07:34:56.289Z,22.42
2023-02-14T07:37:28.297Z,21.60
2023-02-14T07:40:02.684Z,20.88
2023-02-14T07:42:37.924Z,18.08
2023-02-14T07:45:21.147Z,20.70
2023-02-14T07:47:55.494Z,18.67
2023-02-14T07:50:30.198Z,20.35
2023-02-14T07:53:02.453Z,19.95
2023-02-14T07:55:34.981Z,21.35
2023-02-14T07:58:07.506Z,18.48
2023-02-14T08:00:39.779Z,20.52
2023-02-14T08:03:14.042Z,21.58
2023-02-14T08:05:57.187Z,20.17
2023-02-14T08:08:31.268Z,19.98
2023-02-14T08:11:03.633Z,21.05
2023-02-14T08:13:36.083Z,20.33
2023-02-14T08:16:09.745Z,21.02
2023-02-14T08:18:44.459Z,19.42
2023-02-14T08:21:17.349Z,21.27
2023-02-14T08:23:49.497Z,21.08
2023-02-14T08:26:21.755Z,22.02
2023-02-14T08:28:54.298Z,19.20
2023-02-14T08:31:36.258Z,19.60
2023-02-14T08:34:08.924Z,20.63
2023-02-14T08:36:41.829Z,20.95
2023-02-14T08:39:13.919Z,21.30
2023-02-14T08:41:46.061Z,20.92
2023-02-14T08:44:18.365Z,20.42
2023-02-14T08:47:03.496Z,21.63
2023-02-14T08:49:35.752Z,22.45
2023-02-14T08:52:07.809Z,21.65
2023-02-14T08:54:39.907Z,22.85
2023-02-14T08:57:11.976Z,21.85
2023-02-14T08:59:46.463Z,22.35
2023-02-14T09:02:20.275Z,21.75
2023-02-14T09:04:52.630Z,24.33
2023-02-14T09:07:24.769Z,21.08
2023-02-14T09:09:56.983Z,21.15
2023-02-14T09:12:28.929Z,23.10
2023-02-14T09:15:01.049Z,25.08
2023-02-14T09:17:34.327Z,22.30
2023-02-14T09:20:10.097Z,21.95
2023-02-14T09:22:43.758Z,23.73
2023-02-14T09:25:16.782Z,23.42
2023-02-14T09:27:48.931Z,23.20
2023-02-14T09:30:21.314Z,23.63
2023-02-14T09:32:54.211Z,25.10
2023-02-14T09:35:45.056Z,26.60
2023-02-14T09:38:18.387Z,23.25
2023-02-14T09:40:51.064Z,25.48
2023-02-14T09:43:35.927Z,24.90
2023-02-14T09:46:18.306Z,26.20
2023-02-14T09:48:53.091Z,26.10
2023-02-14T09:51:29.439Z,24.98
2023-02-14T09:54:09.722Z,24.45
2023-02-14T09:56:51.273Z,24.55
2023-02-14T09:59:46.951Z,23.77
2023-02-14T10:02:41.795Z,24.52
2023-02-14T10:05:31.336Z,22.83
2023-02-14T10:08:12.364Z,25.38
2023-02-14T10:11:12.068Z,21.83
2023-02-14T10:14:10.475Z,23.10
2023-02-14T10:17:02.219Z,20.38
2023-02-14T10:20:38.197Z,21.83
2023-02-14T10:23:37.922Z,20.90
2023-02-14T10:26:26.278Z,21.25
2023-02-14T10:29:18.311Z,20.83
2023-02-14T10:32:02.406Z,21.58
2023-02-14T10:34:49.923Z,19.70
2023-02-14T10:37:39.852Z,20.55
2023-02-14T10:41:16.935Z,20.95
2023-02-14T10:44:09.301Z,21.23
2023-02-14T10:47:26.890Z,18.48
2023-02-14T10:50:13.301Z,19.80
2023-02-14T10:53:20.488Z,18.60
2023-02-14T10:56:41.990Z,19.90
2023-02-14T10:59:33.977Z,19.42
2023-02-14T11:02:18.306Z,19.63
2023-02-14T11:04:54.897Z,19.42
2023-02-14T11:07:27.940Z,18.58
2023-02-14T11:10:01.598Z,18.92
2023-02-14T11:12:39.571Z,18.98
2023-02-14T11:15:15.163Z,19.15
2023-02-14T11:18:23.437Z,17.08
2023-02-14T11:21:06.114Z,18.38
2023-02-14T11:23:51.101Z,17.60
2023-02-14T11:26:35.125Z,16.02
2023-02-14T11:29:16.631Z,17.48
2023-02-14T11:32:06.998Z,16.95
2023-02-14T11:34:58.079Z,17.50
2023-02-14T11:37:43.884Z,16.77
2023-02-14T11:40:34.794Z,15.70
2023-02-14T11:43:14.333Z,17.02
2023-02-14T11:46:05.807Z,17.00
2023-02-14T11:49:33.823Z,17.30
2023-02-14T11:52:15.474Z,16.60
2023-02-14T11:54:49.682Z,16.33
2023-02-14T11:57:38.291Z,15.38
2023-02-14T12:00:20.300Z,16.55
2023-02-14T12:02:55.754Z,16.13
2023-02-14T12:05:34.221Z,16.98
2023-02-14T12:08:30.128Z,15.95
2023-02-14T12:11:21.643Z,15.75
2023-02-14T12:14:21.735Z,15.85
2023-02-14T12:17:20.118Z,16.48
2023-02-14T12:20:12.594Z,16.00
2023-02-14T12:23:17.216Z,16.48
2023-02-14T12:26:06.526Z,16.25
2023-02-14T12:29:18.606Z,15.95
2023-02-14T12:32:12.655Z,15.93
2023-02-14T12:35:20.421Z,15.80
2023-02-14T12:38:38.292Z,17.13
2023-02-14T12:41:36.501Z,14.90
2023-02-14T12:44:52.335Z,16.95
2023-02-14T12:48:09.593Z,16.00
2023-02-14T12:51:04.997Z,15.07
2023-02-14T12:54:15.380Z,15.63
2023-02-14T12:57:29.049Z,14.90
2023-02-14T13:00:28.723Z,15.73
2023-02-14T13:03:42.159Z,17.73
2023-02-14T13:06:43.494Z,16.77
2023-02-14T13:10:01.089Z,16.25
2023-02-14T13:12:53.825Z,17.85
2023-02-14T13:16:06.286Z,16.10
2023-02-14T13:19:07.054Z,16.00
2023-02-14T13:22:19.478Z,15.63
2023-02-14T13:24:59.433Z,15.70
2023-02-14T13:27:38.873Z,16.52
2023-02-14T13:30:22.690Z,15.88
2023-02-14T13:33:28.188Z,17.85
2023-02-14T13:36:10.828Z,16.33
2023-02-14T13:38:48.432Z,16.92
2023-02-14T13:41:24.331Z,16.73
2023-02-14T13:44:02.547Z,17.10
2023-02-14T13:46:37.162Z,16.08
2023-02-14T13:49:33.843Z,17.23
2023-02-14T13:52:56.761Z,17.20
2023-02-14T13:55:36.652Z,16.17
2023-02-14T13:58:21.705Z,16.65
2023-02-14T14:00:56.460Z,16.63
2023-02-14T14:03:29.843Z,17.55
2023-02-14T14:06:21.907Z,17.23
2023-02-14T14:08:56.988Z,17.42
2023-02-14T14:11:33.211Z,16.95
2023-02-14T14:14:30.365Z,16.92
2023-02-14T14:17:21.171Z,16.60
2023-02-14T14:19:57.973Z,16.50
2023-02-14T14:22:31.267Z,17.65
2023-02-14T14:25:09.113Z,15.75
2023-02-14T14:27:45.015Z,18.25
2023-02-14T14:30:28.516Z,17.05
2023-02-14T14:33:23.579Z,18.23
2023-02-14T14:36:08.572Z,16.65
2023-02-14T14:38:54.267Z,17.20
2023-02-14T14:41:29.310Z,16.65
2023-02-14T14:44:05.694Z,16.40
2023-02-14T14:46:38.097Z,17.60
2023-02-14T14:49:11.971Z,17.75
2023-02-14T14:51:48.165Z,16.67
2023-02-14T14:54:22.791Z,16.67
2023-02-14T14:57:03.540Z,16.30
2023-02-14T14:59:37.384Z,18.38
2023-02-14T15:02:26.640Z,18.95
2023-02-14T15:05:17.555Z,16.98
2023-02-14T15:08:22.937Z,18.23
2023-02-14T15:11:03.896Z,16.75
2023-02-14T15:13:53.499Z,16.90
2023-02-14T15:16:25.747Z,16.50
2023-02-14T15:19:11.621Z,17.58
2023-02-14T15:21:51.136Z,16.17
2023-02-14T15:24:23.645Z,18.45
2023-02-14T15:26:57.890Z,17.60
2023-02-14T15:29:32.453Z,17.40
2023-02-14T15:32:05.446Z,18.05
2023-02-14T15:34:40.190Z,16.50
2023-02-14T15:37:13.561Z,16.67
2023-02-14T15:40:01.183Z,17.60
2023-02-14T15:42:40.856Z,16.27
2023-02-14T15:45:28.321Z,17.35
2023-02-14T15:48:05.380Z,17.63
2023-02-14T15:50:54.764Z,18.50
2023-02-14T15:53:34.310Z,16.48
2023-02-14T15:56:26.219Z,17.65
2023-02-14T15:59:04.466Z,17.00
2023-02-14T16:02:20.580Z,17.13
2023-02-14T16:05:23.848Z,17.20
2023-02-14T16:07:57.645Z,17.48
2023-02-14T16:10:35.868Z,16.02
2023-02-14T16:13:14.977Z,18.13
2023-02-14T16:15:59.848Z,16.90
2023-02-14T16:18:41.031Z,16.65
2023-02-14T16:21:29.737Z,19.52
2023-02-14T16:24:11.692Z,16.55
2023-02-14T16:26:45.086Z,17.08
2023-02-14T16:29:22.150Z,17.73
2023-02-14T16:32:14.830Z,18.55
2023-02-14T16:35:00.874Z,18.17
2023-02-14T16:37:34.101Z,17.27
2023-02-14T16:40:14.173Z,17.90
2023-02-14T16:42:47.387Z,16.67
2023-02-14T16:45:20.661Z,15.95
2023-02-14T16:47:52.841Z,16.85
2023-02-14T16:50:28.100Z,16.35
2023-02-14T16:53:01.396Z,17.60
2023-02-14T16:55:34.977Z,18.48
2023-02-14T16:58:08.317Z,16.98
2023-02-14T17:00:40.884Z,16.77
2023-02-14T17:03:13.090Z,17.83
2023-02-14T17:05:45.842Z,17.33
2023-02-14T17:08:19.442Z,16.95
2023-02-14T17:10:53.785Z,16.20
2023-02-14T17:13:30.966Z,17.15
2023-02-14T17:16:07.071Z,17.42
2023-02-14T17:18:42.252Z,17.35
2023-02-14T17:21:21.968Z,16.88
2023-02-14T17:23:56.773Z,17.80
2023-02-14T17:26:29.592Z,17.92
2023-02-14T17:29:04.441Z,18.30
2023-02-14T17:31:39.167Z,18.50
2023-02-14T17:34:12.599Z,18.45
2023-02-14T17:36:45.703Z,15.80
2023-02-14T17:39:19.090Z,17.95
2023-02-14T17:41:51.489Z,17.08
2023-02-14T17:44:24.333Z,17.88
2023-02-14T17:46:58.230Z,18.38
2023-02-14T17:49:31.124Z,17.75
2023-02-14T17:52:04.143Z,17.10
2023-02-14T17:54:38.993Z,16.67
2023-02-14T17:57:12.980Z,21.75
2023-02-14T17:59:46.828Z,20.10
2023-02-14T18:02:19.282Z,16.33
2023-02-14T18:04:51.494Z,17.65
2023-02-14T18:07:23.819Z,16.83
2023-02-14T18:09:56.223Z,18.27
2023-02-14T18:12:28.549Z,19.40
2023-02-14T18:15:01.973Z,18.38
2023-02-14T18:17:37.191Z,16.73
2023-02-14T18:20:10.769Z,17.38
2023-02-14T18:22:45.651Z,16.83
2023-02-14T18:25:18.296Z,18.75
2023-02-14T18:27:51.692Z,16.88
2023-02-14T18:30:24.310Z,18.88
2023-02-14T18:32:57.025Z,17.50
2023-02-14T18:35:30.078Z,17.13
2023-02-14T18:38:03.017Z,18.85
2023-02-14T18:40:36.467Z,18.80
2023-02-14T18:43:10.061Z,17.20
2023-02-14T18:45:44.441Z,17.75
2023-02-14T18:48:17.784Z,18.77
2023-02-14T18:50:52.704Z,17.90
2023-02-14T18:53:26.265Z,16.85
2023-02-14T18:55:59.500Z,17.90
2023-02-14T18:58:37.589Z,17.88
2023-02-14T19:01:15.056Z,18.40
2023-02-14T19:03:51.573Z,17.50
2023-02-14T19:06:26.683Z,18.80
2023-02-14T19:09:03.820Z,18.60
2023-02-14T19:11:42.964Z,20.25
2023-02-14T19:14:18.880Z,18.35
2023-02-14T19:16:54.542Z,18.80
2023-02-14T19:19:31.906Z,19.50
2023-02-14T19:22:05.421Z,16.27
2023-02-14T19:24:39.363Z,18.33
2023-02-14T19:27:13.529Z,18.05
2023-02-14T19:29:46.974Z,17.08
2023-02-14T19:32:19.595Z,16.55
2023-02-14T19:34:53.050Z,18.80
2023-02-14T19:37:27.390Z,18.35
2023-02-14T19:40:00.837Z,18.65
2023-02-14T19:42:35.992Z,18.55
2023-02-14T19:45:09.824Z,16.50
2023-02-14T19:47:47.338Z,17.33
2023-02-14T19:50:22.059Z,17.50
2023-02-14T19:52:55.633Z,18.55
2023-02-14T19:55:30.222Z,18.45
2023-02-14T19:58:05.446Z,16.70
2023-02-14T20:00:40.228Z,15.75
2023-02-14T20:03:33.809Z,16.65
2023-02-14T20:06:10.480Z,17.40
2023-02-14T20:08:46.880Z,16.10
2023-02-14T20:11:47.505Z,16.90
2023-02-14T20:14:43.601Z,18.00
2023-02-14T20:17:27.109Z,17.55
2023-02-14T20:20:15.037Z,16.17
2023-02-14T20:22:49.504Z,18.73
2023-02-14T20:25:25.457Z,16.85
2023-02-14T20:28:00.285Z,17.13
2023-02-14T20:30:35.432Z,18.00
2023-02-14T20:33:13.450Z,17.13
2023-02-14T20:35:47.745Z,16.92
2023-02-14T20:38:21.980Z,16.70
2023-02-14T20:41:12.487Z,18.60
2023-02-14T20:43:46.945Z,19.85
2023-02-14T20:46:22.351Z,21.67
2023-02-14T20:48:57.018Z,21.17
2023-02-14T20:51:31.852Z,19.27
2023-02-14T20:54:07.639Z,16.73
2023-02-14T20:56:42.294Z,19.33
2023-02-14T20:59:17.351Z,18.35
2023-02-14T21:02:03.989Z,18.40
2023-02-14T21:04:38.228Z,18.98
2023-02-14T21:07:14.463Z,18.98
2023-02-14T21:09:49.749Z,21.90
2023-02-14T21:12:23.937Z,22.50
2023-02-14T21:14:57.940Z,18.52
2023-02-14T21:17:31.860Z,17.85
2023-02-14T21:20:12.013Z,18.10
2023-02-14T21:22:49.215Z,19.35
2023-02-14T21:25:25.847Z,18.95
2023-02-14T21:28:00.216Z,19.77
2023-02-14T21:30:34.203Z,19.45
2023-02-14T21:33:07.446Z,20.95
2023-02-14T21:35:41.070Z,19.13
2023-02-14T21:38:14.518Z,18.75
2023-02-14T21:40:47.569Z,20.25
2023-02-14T21:43:20.765Z,17.92
2023-02-14T21:45:53.569Z,19.48
2023-02-14T21:48:45.616Z,19.27
2023-02-14T21:51:37.744Z,19.10
2023-02-14T21:54:12.100Z,20.20
2023-02-14T21:56:45.524Z,20.25
2023-02-14T21:59:17.986Z,18.33
2023-02-14T22:01:50.225Z,19.58
2023-02-14T22:04:22.333Z,20.20
2023-02-14T22:06:54.496Z,20.67
2023-02-14T22:09:27.989Z,20.70
2023-02-14T22:12:00.125Z,19.77
2023-02-14T22:14:32.217Z,19.55
2023-02-14T22:17:04.605Z,19.60
2023-02-14T22:19:36.978Z,20.02
2023-02-14T22:22:09.133Z,19.75
2023-02-14T22:24:41.186Z,21.73
2023-02-14T22:27:13.290Z,19.80
2023-02-14T22:29:47.060Z,19.70
2023-02-14T22:32:19.311Z,19.80
2023-02-14T22:34:51.658Z,20.92
2023-02-14T22:37:25.696Z,21.08
2023-02-14T22:39:58.369Z,21.25
2023-02-14T22:42:31.594Z,22.73
2023-02-14T22:45:04.302Z,21.13
2023-02-14T22:47:37.674Z,23.67
2023-02-14T22:50:10.277Z,23.48
2023-02-14T22:52:42.743Z,23.38
2023-02-14T22:55:15.619Z,24.10
2023-02-14T22:57:47.913Z,23.08
2023-02-14T23:00:20.495Z,24.35
2023-02-14T23:02:52.846Z,23.15
2023-02-14T23:05:24.923Z,23.83
2023-02-14T23:07:56.968Z,23.42
2023-02-14T23:10:29.448Z,23.50
2023-02-14T23:13:19.778Z,23.15
2023-02-14T23:16:30.018Z,23.23
2023-02-14T23:19:43.241Z,23.10
2023-02-14T23:22:40.088Z,21.77
2023-02-14T23:25:13.001Z,22.60
2023-02-14T23:27:47.513Z,22.50
2023-02-14T23:30:19.827Z,22.50
2023-02-14T23:32:52.206Z,22.83
2023-02-14T23:35:24.293Z,21.80
2023-02-14T23:37:56.282Z,22.90
2023-02-14T23:40:28.323Z,21.35
2023-02-14T23:43:00.262Z,21.27
2023-02-14T23:45:34.965Z,22.00
2023-02-14T23:48:07.272Z,22.25
2023-02-14T23:50:39.317Z,22.85
2023-02-14T23:53:11.551Z,22.05
2023-02-14T23:55:46.040Z,23.45
2023-02-14T23:58:18.054Z,22.13
